sensor_id;sensor_type;location;lat;lon;timestamp;temperature;humidity
51793;DHT22;37850;53.178;6.376;2022-12-10T00:01:20;-1.30;99.90
51793;DHT22;37850;53.178;6.376;2022-12-10T00:03:46;-1.70;99.90
51793;DHT22;37850;53.178;6.376;2022-12-10T00:06:17;-1.40;99.90
51793;DHT22;37850;53.178;6.376;2022-12-10T00:08:43;-1.40;99.90
51793;DHT22;37850;53.178;6.376;2022-12-10T00:11:11;-1.40;99.90
51793;DHT22;37850;53.178;6.376;2022-12-10T00:13:37;-1.40;99.90
51793;DHT22;37850;53.178;6.376;2022-12-10T00:16:05;-1.40;99.90
51793;DHT22;37850;53.178;6.376;2022-12-10T00:18:32;-1.40;99.90
51793;DHT22;37850;53.178;6.376;2022-12-10T00:20:58;-1.40;99.90
51793;DHT22;37850;53.178;6.376;2022-12-10T00:23:27;-1.40;99.90
51793;DHT22;37850;53.178;6.376;2022-12-10T00:25:53;-1.40;99.90
51793;DHT22;37850;53.178;6.376;2022-12-10T00:28:19;-1.40;99.90
51793;DHT22;37850;53.178;6.376;2022-12-10T00:30:45;-0.50;99.90
51793;DHT22;37850;53.178;6.376;2022-12-10T00:33:11;-0.80;99.90
51793;DHT22;37850;53.178;6.376;2022-12-10T00:35:36;-0.10;99.90
51793;DHT22;37850;53.178;6.376;2022-12-10T00:38:03;-1.40;99.90
51793;DHT22;37850;53.178;6.376;2022-12-10T00:40:28;-1.50;99.90
51793;DHT22;37850;53.178;6.376;2022-12-10T00:42:54;-0.40;99.90
51793;DHT22;37850;53.178;6.376;2022-12-10T00:45:34;-1.50;99.90
51793;DHT22;37850;53.178;6.376;2022-12-10T00:48:00;-1.50;99.90
51793;DHT22;37850;53.178;6.376;2022-12-10T00:50:26;-1.50;99.90
51793;DHT22;37850;53.178;6.376;2022-12-10T00:52:52;-1.50;99.90
51793;DHT22;37850;53.178;6.376;2022-12-10T00:55:17;-1.50;99.90
51793;DHT22;37850;53.178;6.376;2022-12-10T00:57:43;-1.30;99.90
51793;DHT22;37850;53.178;6.376;2022-12-10T01:00:09;-1.50;99.90
51793;DHT22;37850;53.178;6.376;2022-12-10T01:02:35;-1.50;99.90
51793;DHT22;37850;53.178;6.376;2022-12-10T01:05:01;-1.50;99.90
51793;DHT22;37850;53.178;6.376;2022-12-10T01:07:27;-1.50;99.90
51793;DHT22;37850;53.178;6.376;2022-12-10T01:09:52;-1.50;99.90
51793;DHT22;37850;53.178;6.376;2022-12-10T01:12:18;-1.50;99.90
51793;DHT22;37850;53.178;6.376;2022-12-10T01:14:44;-1.60;99.90
51793;DHT22;37850;53.178;6.376;2022-12-10T01:17:10;-1.60;99.90
51793;DHT22;37850;53.178;6.376;2022-12-10T01:19:35;-1.60;99.90
51793;DHT22;37850;53.178;6.376;2022-12-10T01:22:02;-1.30;99.90
51793;DHT22;37850;53.178;6.376;2022-12-10T01:24:29;-0.80;99.90
51793;DHT22;37850;53.178;6.376;2022-12-10T01:26:55;-1.20;99.90
51793;DHT22;37850;53.178;6.376;2022-12-10T01:29:21;-1.00;99.90
51793;DHT22;37850;53.178;6.376;2022-12-10T01:31:51;-1.60;99.90
51793;DHT22;37850;53.178;6.376;2022-12-10T01:34:17;-1.70;99.90
51793;DHT22;37850;53.178;6.376;2022-12-10T01:36:45;-0.70;99.90
51793;DHT22;37850;53.178;6.376;2022-12-10T01:39:18;-1.70;99.90
51793;DHT22;37850;53.178;6.376;2022-12-10T01:41:51;-1.70;99.90
51793;DHT22;37850;53.178;6.376;2022-12-10T01:46:48;-0.60;99.90
51793;DHT22;37850;53.178;6.376;2022-12-10T01:49:18;-0.50;99.90
51793;DHT22;37850;53.178;6.376;2022-12-10T01:51:46;-1.70;99.90
51793;DHT22;37850;53.178;6.376;2022-12-10T01:54:31;-1.70;99.90
51793;DHT22;37850;53.178;6.376;2022-12-10T01:57:12;-1.80;99.90
51793;DHT22;37850;53.178;6.376;2022-12-10T01:59:40;-1.80;99.90
51793;DHT22;37850;53.178;6.376;2022-12-10T02:02:17;-1.20;99.90
51793;DHT22;37850;53.178;6.376;2022-12-10T02:07:59;-1.80;99.90
51793;DHT22;37850;53.178;6.376;2022-12-10T02:10:42;-1.90;99.90
51793;DHT22;37850;53.178;6.376;2022-12-10T02:15:50;-1.90;99.90
51793;DHT22;37850;53.178;6.376;2022-12-10T02:18:40;-0.70;99.90
51793;DHT22;37850;53.178;6.376;2022-12-10T02:21:32;-1.90;99.90
51793;DHT22;37850;53.178;6.376;2022-12-10T02:24:00;-0.70;99.90
51793;DHT22;37850;53.178;6.376;2022-12-10T02:31:41;-0.90;99.90
51793;DHT22;37850;53.178;6.376;2022-12-10T02:34:09;-1.50;99.90
51793;DHT22;37850;53.178;6.376;2022-12-10T02:36:38;-1.90;99.90
51793;DHT22;37850;53.178;6.376;2022-12-10T02:39:09;-1.60;99.90
51793;DHT22;37850;53.178;6.376;2022-12-10T02:41:39;-1.90;99.90
51793;DHT22;37850;53.178;6.376;2022-12-10T02:44:10;-0.90;99.90
51793;DHT22;37850;53.178;6.376;2022-12-10T02:46:38;-1.80;99.90
51793;DHT22;37850;53.178;6.376;2022-12-10T02:49:07;-1.90;99.90
51793;DHT22;37850;53.178;6.376;2022-12-10T02:51:37;-1.50;99.90
51793;DHT22;37850;53.178;6.376;2022-12-10T02:54:05;-2.00;99.90
51793;DHT22;37850;53.178;6.376;2022-12-10T02:56:51;-1.70;99.90
51793;DHT22;37850;53.178;6.376;2022-12-10T03:07:52;-2.00;99.90
51793;DHT22;37850;53.178;6.376;2022-12-10T03:13:08;-2.00;99.90
51793;DHT22;37850;53.178;6.376;2022-12-10T03:15:38;-2.00;99.90
51793;DHT22;37850;53.178;6.376;2022-12-10T03:18:06;-0.90;99.90
51793;DHT22;37850;53.178;6.376;2022-12-10T03:20:36;-1.00;99.90
51793;DHT22;37850;53.178;6.376;2022-12-10T03:23:04;-2.00;99.90
51793;DHT22;37850;53.178;6.376;2022-12-10T03:25:32;-2.00;99.90
51793;DHT22;37850;53.178;6.376;2022-12-10T03:28:00;-1.30;99.90
51793;DHT22;37850;53.178;6.376;2022-12-10T03:30:27;-2.00;99.90
51793;DHT22;37850;53.178;6.376;2022-12-10T03:32:53;-2.00;99.90
51793;DHT22;37850;53.178;6.376;2022-12-10T03:35:22;-1.30;99.90
51793;DHT22;37850;53.178;6.376;2022-12-10T03:37:49;-1.80;99.90
51793;DHT22;37850;53.178;6.376;2022-12-10T03:40:16;-0.80;99.90
51793;DHT22;37850;53.178;6.376;2022-12-10T03:42:43;-2.00;99.90
51793;DHT22;37850;53.178;6.376;2022-12-10T03:45:09;-2.00;99.90
51793;DHT22;37850;53.178;6.376;2022-12-10T03:47:35;-2.00;99.90
51793;DHT22;37850;53.178;6.376;2022-12-10T03:50:01;-1.60;99.90
51793;DHT22;37850;53.178;6.376;2022-12-10T03:52:27;-2.10;99.90
51793;DHT22;37850;53.178;6.376;2022-12-10T03:54:53;-2.00;99.90
51793;DHT22;37850;53.178;6.376;2022-12-10T03:57:18;-2.00;99.90
51793;DHT22;37850;53.178;6.376;2022-12-10T03:59:44;-2.00;99.90
51793;DHT22;37850;53.178;6.376;2022-12-10T04:02:10;-1.80;99.90
51793;DHT22;37850;53.178;6.376;2022-12-10T04:04:36;-2.00;99.90
51793;DHT22;37850;53.178;6.376;2022-12-10T04:07:02;-1.30;99.90
51793;DHT22;37850;53.178;6.376;2022-12-10T04:09:28;-2.00;99.90
51793;DHT22;37850;53.178;6.376;2022-12-10T04:11:57;-2.00;99.90
51793;DHT22;37850;53.178;6.376;2022-12-10T04:14:24;-2.10;99.90
51793;DHT22;37850;53.178;6.376;2022-12-10T04:17:09;-2.00;99.90
51793;DHT22;37850;53.178;6.376;2022-12-10T04:19:35;-1.90;99.90
51793;DHT22;37850;53.178;6.376;2022-12-10T04:22:01;-1.90;99.90
51793;DHT22;37850;53.178;6.376;2022-12-10T04:24:46;-0.50;99.90
51793;DHT22;37850;53.178;6.376;2022-12-10T04:27:38;-1.90;99.90
51793;DHT22;37850;53.178;6.376;2022-12-10T04:30:07;-1.90;99.90
51793;DHT22;37850;53.178;6.376;2022-12-10T04:32:33;-1.80;99.90
51793;DHT22;37850;53.178;6.376;2022-12-10T04:34:58;-1.90;99.90
51793;DHT22;37850;53.178;6.376;2022-12-10T04:37:26;-1.90;99.90
51793;DHT22;37850;53.178;6.376;2022-12-10T04:39:52;-1.90;99.90
51793;DHT22;37850;53.178;6.376;2022-12-10T04:42:19;-1.80;99.90
51793;DHT22;37850;53.178;6.376;2022-12-10T04:44:45;-1.60;99.90
51793;DHT22;37850;53.178;6.376;2022-12-10T04:47:11;-1.40;99.90
51793;DHT22;37850;53.178;6.376;2022-12-10T04:49:37;-1.80;99.90
51793;DHT22;37850;53.178;6.376;2022-12-10T04:52:05;-0.60;99.90
51793;DHT22;37850;53.178;6.376;2022-12-10T04:54:31;-1.70;99.90
51793;DHT22;37850;53.178;6.376;2022-12-10T04:56:57;-1.70;99.90
51793;DHT22;37850;53.178;6.376;2022-12-10T04:59:23;-1.70;99.90
51793;DHT22;37850;53.178;6.376;2022-12-10T05:01:49;-1.10;99.90
51793;DHT22;37850;53.178;6.376;2022-12-10T05:04:16;-1.70;99.90
51793;DHT22;37850;53.178;6.376;2022-12-10T05:06:43;-1.70;99.90
51793;DHT22;37850;53.178;6.376;2022-12-10T05:09:11;-0.60;99.90
51793;DHT22;37850;53.178;6.376;2022-12-10T05:11:37;-1.70;99.90
51793;DHT22;37850;53.178;6.376;2022-12-10T05:14:03;-1.50;99.90
51793;DHT22;37850;53.178;6.376;2022-12-10T05:16:31;-1.50;99.90
51793;DHT22;37850;53.178;6.376;2022-12-10T05:18:57;-1.70;99.90
51793;DHT22;37850;53.178;6.376;2022-12-10T05:21:26;-1.70;99.90
51793;DHT22;37850;53.178;6.376;2022-12-10T05:24:12;-1.70;99.90
51793;DHT22;37850;53.178;6.376;2022-12-10T05:26:38;-1.50;99.90
51793;DHT22;37850;53.178;6.376;2022-12-10T05:29:04;-1.70;99.90
51793;DHT22;37850;53.178;6.376;2022-12-10T05:31:30;-1.70;99.90
51793;DHT22;37850;53.178;6.376;2022-12-10T05:33:57;-1.10;99.90
51793;DHT22;37850;53.178;6.376;2022-12-10T05:36:26;-1.70;99.90
51793;DHT22;37850;53.178;6.376;2022-12-10T05:38:53;-1.60;99.90
51793;DHT22;37850;53.178;6.376;2022-12-10T05:41:21;-1.70;99.90
51793;DHT22;37850;53.178;6.376;2022-12-10T05:43:47;-1.70;99.90
51793;DHT22;37850;53.178;6.376;2022-12-10T05:46:16;-1.70;99.90
51793;DHT22;37850;53.178;6.376;2022-12-10T05:48:42;-1.70;99.90
51793;DHT22;37850;53.178;6.376;2022-12-10T05:51:10;-1.70;99.90
51793;DHT22;37850;53.178;6.376;2022-12-10T05:53:37;-0.50;99.90
51793;DHT22;37850;53.178;6.376;2022-12-10T05:56:05;-0.50;99.90
51793;DHT22;37850;53.178;6.376;2022-12-10T05:58:32;-1.70;99.90
51793;DHT22;37850;53.178;6.376;2022-12-10T06:00:58;-1.20;99.90
51793;DHT22;37850;53.178;6.376;2022-12-10T06:03:24;-1.70;99.90
51793;DHT22;37850;53.178;6.376;2022-12-10T06:05:51;-1.40;99.90
51793;DHT22;37850;53.178;6.376;2022-12-10T06:08:17;-0.70;99.90
51793;DHT22;37850;53.178;6.376;2022-12-10T06:10:43;-1.60;99.90
51793;DHT22;37850;53.178;6.376;2022-12-10T06:13:09;-0.90;99.90
51793;DHT22;37850;53.178;6.376;2022-12-10T06:15:38;-1.60;99.90
51793;DHT22;37850;53.178;6.376;2022-12-10T06:18:04;-1.10;99.90
51793;DHT22;37850;53.178;6.376;2022-12-10T06:20:30;-1.60;99.90
51793;DHT22;37850;53.178;6.376;2022-12-10T06:22:56;-1.60;99.90
51793;DHT22;37850;53.178;6.376;2022-12-10T06:25:22;-1.40;99.90
51793;DHT22;37850;53.178;6.376;2022-12-10T06:27:48;-1.60;99.90
51793;DHT22;37850;53.178;6.376;2022-12-10T06:30:14;-1.60;99.90
51793;DHT22;37850;53.178;6.376;2022-12-10T06:32:41;-1.60;99.90
51793;DHT22;37850;53.178;6.376;2022-12-10T06:35:10;-0.60;99.90
51793;DHT22;37850;53.178;6.376;2022-12-10T06:37:37;-0.50;99.90
51793;DHT22;37850;53.178;6.376;2022-12-10T06:40:04;-0.50;99.90
51793;DHT22;37850;53.178;6.376;2022-12-10T06:42:29;-1.60;99.90
51793;DHT22;37850;53.178;6.376;2022-12-10T06:44:56;-0.40;99.90
51793;DHT22;37850;53.178;6.376;2022-12-10T06:47:22;-1.60;99.90
51793;DHT22;37850;53.178;6.376;2022-12-10T06:49:47;-1.60;99.90
51793;DHT22;37850;53.178;6.376;2022-12-10T06:52:13;-1.60;99.90
51793;DHT22;37850;53.178;6.376;2022-12-10T06:54:39;-1.40;99.90
51793;DHT22;37850;53.178;6.376;2022-12-10T06:57:05;-1.60;99.90
51793;DHT22;37850;53.178;6.376;2022-12-10T06:59:31;-1.60;99.90
51793;DHT22;37850;53.178;6.376;2022-12-10T07:01:56;-1.60;99.90
51793;DHT22;37850;53.178;6.376;2022-12-10T07:04:22;-1.30;99.90
51793;DHT22;37850;53.178;6.376;2022-12-10T07:06:48;-1.60;99.90
51793;DHT22;37850;53.178;6.376;2022-12-10T07:09:14;-0.60;99.90
51793;DHT22;37850;53.178;6.376;2022-12-10T07:11:40;-1.60;99.90
51793;DHT22;37850;53.178;6.376;2022-12-10T07:14:06;-1.60;99.90
51793;DHT22;37850;53.178;6.376;2022-12-10T07:16:35;-0.50;99.90
51793;DHT22;37850;53.178;6.376;2022-12-10T07:19:02;-1.60;99.90
51793;DHT22;37850;53.178;6.376;2022-12-10T07:21:34;-0.10;99.90
51793;DHT22;37850;53.178;6.376;2022-12-10T07:24:03;-1.60;99.90
51793;DHT22;37850;53.178;6.376;2022-12-10T07:26:32;-1.60;99.90
51793;DHT22;37850;53.178;6.376;2022-12-10T07:29:02;-0.60;99.90
51793;DHT22;37850;53.178;6.376;2022-12-10T07:31:29;-1.60;99.90
51793;DHT22;37850;53.178;6.376;2022-12-10T07:33:57;-1.60;99.90
51793;DHT22;37850;53.178;6.376;2022-12-10T07:36:23;-1.30;99.90
51793;DHT22;37850;53.178;6.376;2022-12-10T07:38:53;-1.60;99.90
51793;DHT22;37850;53.178;6.376;2022-12-10T07:41:20;-1.60;99.90
51793;DHT22;37850;53.178;6.376;2022-12-10T07:43:46;-1.60;99.90
51793;DHT22;37850;53.178;6.376;2022-12-10T07:46:26;-1.60;99.90
51793;DHT22;37850;53.178;6.376;2022-12-10T07:48:52;-1.60;99.90
51793;DHT22;37850;53.178;6.376;2022-12-10T07:51:20;-1.60;99.90
51793;DHT22;37850;53.178;6.376;2022-12-10T07:53:46;-1.60;99.90
51793;DHT22;37850;53.178;6.376;2022-12-10T07:56:13;-1.60;99.90
51793;DHT22;37850;53.178;6.376;2022-12-10T07:58:43;-1.40;99.90
51793;DHT22;37850;53.178;6.376;2022-12-10T08:01:12;-1.60;99.90
51793;DHT22;37850;53.178;6.376;2022-12-10T08:03:38;-1.20;99.90
51793;DHT22;37850;53.178;6.376;2022-12-10T08:06:07;-1.60;99.90
51793;DHT22;37850;53.178;6.376;2022-12-10T08:08:36;-1.70;99.90
51793;DHT22;37850;53.178;6.376;2022-12-10T08:11:03;-1.70;99.90
51793;DHT22;37850;53.178;6.376;2022-12-10T08:13:29;-1.70;99.90
51793;DHT22;37850;53.178;6.376;2022-12-10T08:16:07;-0.70;99.90
51793;DHT22;37850;53.178;6.376;2022-12-10T08:18:36;-1.70;99.90
51793;DHT22;37850;53.178;6.376;2022-12-10T08:21:14;-1.70;99.90
51793;DHT22;37850;53.178;6.376;2022-12-10T08:23:41;-1.70;99.90
51793;DHT22;37850;53.178;6.376;2022-12-10T08:26:12;-1.80;99.90
51793;DHT22;37850;53.178;6.376;2022-12-10T08:28:38;-1.50;99.90
51793;DHT22;37850;53.178;6.376;2022-12-10T08:31:05;-1.80;99.90
51793;DHT22;37850;53.178;6.376;2022-12-10T08:33:33;-1.80;99.90
51793;DHT22;37850;53.178;6.376;2022-12-10T08:36:00;-1.70;99.90
51793;DHT22;37850;53.178;6.376;2022-12-10T08:38:26;-0.40;99.90
51793;DHT22;37850;53.178;6.376;2022-12-10T08:40:52;-1.70;99.90
51793;DHT22;37850;53.178;6.376;2022-12-10T08:43:19;-1.70;99.90
51793;DHT22;37850;53.178;6.376;2022-12-10T08:45:45;-1.70;99.90
51793;DHT22;37850;53.178;6.376;2022-12-10T08:48:10;-1.70;99.90
51793;DHT22;37850;53.178;6.376;2022-12-10T08:50:37;-1.70;99.90
51793;DHT22;37850;53.178;6.376;2022-12-10T08:53:03;-1.40;99.90
51793;DHT22;37850;53.178;6.376;2022-12-10T08:55:29;-1.60;99.90
51793;DHT22;37850;53.178;6.376;2022-12-10T08:57:58;-1.70;99.90
51793;DHT22;37850;53.178;6.376;2022-12-10T09:00:25;-0.40;99.90
51793;DHT22;37850;53.178;6.376;2022-12-10T09:02:51;-1.60;99.90
51793;DHT22;37850;53.178;6.376;2022-12-10T09:05:17;-0.90;99.90
51793;DHT22;37850;53.178;6.376;2022-12-10T09:07:43;-1.60;99.90
51793;DHT22;37850;53.178;6.376;2022-12-10T09:10:10;-1.60;99.90
51793;DHT22;37850;53.178;6.376;2022-12-10T09:12:38;-1.60;99.90
51793;DHT22;37850;53.178;6.376;2022-12-10T09:15:05;-1.60;99.90
51793;DHT22;37850;53.178;6.376;2022-12-10T09:17:31;-1.60;99.90
51793;DHT22;37850;53.178;6.376;2022-12-10T09:19:57;-1.60;99.90
51793;DHT22;37850;53.178;6.376;2022-12-10T09:22:23;-1.60;99.90
51793;DHT22;37850;53.178;6.376;2022-12-10T09:24:48;-1.00;99.90
51793;DHT22;37850;53.178;6.376;2022-12-10T09:27:14;-1.70;99.90
51793;DHT22;37850;53.178;6.376;2022-12-10T09:29:40;-1.50;99.90
51793;DHT22;37850;53.178;6.376;2022-12-10T09:32:05;-1.50;99.90
51793;DHT22;37850;53.178;6.376;2022-12-10T09:34:31;-0.60;99.90
51793;DHT22;37850;53.178;6.376;2022-12-10T09:36:57;-1.50;99.90
51793;DHT22;37850;53.178;6.376;2022-12-10T09:39:22;-1.30;99.90
51793;DHT22;37850;53.178;6.376;2022-12-10T09:42:17;-1.40;99.90
51793;DHT22;37850;53.178;6.376;2022-12-10T09:44:59;-1.50;99.90
51793;DHT22;37850;53.178;6.376;2022-12-10T09:47:41;-1.50;99.90
51793;DHT22;37850;53.178;6.376;2022-12-10T09:50:20;-1.40;99.90
51793;DHT22;37850;53.178;6.376;2022-12-10T09:52:49;-1.40;99.90
51793;DHT22;37850;53.178;6.376;2022-12-10T09:55:25;-1.40;99.90
51793;DHT22;37850;53.178;6.376;2022-12-10T09:57:53;-1.40;99.90
51793;DHT22;37850;53.178;6.376;2022-12-10T10:00:39;-1.40;99.90
51793;DHT22;37850;53.178;6.376;2022-12-10T10:03:09;-1.40;99.90
51793;DHT22;37850;53.178;6.376;2022-12-10T10:05:41;-1.40;99.90
51793;DHT22;37850;53.178;6.376;2022-12-10T10:08:17;-1.40;99.90
51793;DHT22;37850;53.178;6.376;2022-12-10T10:10:44;-1.10;99.90
51793;DHT22;37850;53.178;6.376;2022-12-10T10:13:34;-1.40;99.90
51793;DHT22;37850;53.178;6.376;2022-12-10T10:16:22;-1.40;99.90
51793;DHT22;37850;53.178;6.376;2022-12-10T10:18:58;-1.40;99.90
51793;DHT22;37850;53.178;6.376;2022-12-10T10:21:27;-0.20;99.90
51793;DHT22;37850;53.178;6.376;2022-12-10T10:23:54;-1.30;99.90
51793;DHT22;37850;53.178;6.376;2022-12-10T10:26:21;-1.30;99.90
51793;DHT22;37850;53.178;6.376;2022-12-10T10:28:49;-1.30;99.90
51793;DHT22;37850;53.178;6.376;2022-12-10T10:31:23;-1.30;99.90
51793;DHT22;37850;53.178;6.376;2022-12-10T10:33:55;-1.20;99.90
51793;DHT22;37850;53.178;6.376;2022-12-10T10:36:28;-1.20;99.90
51793;DHT22;37850;53.178;6.376;2022-12-10T10:38:54;-1.20;99.90
51793;DHT22;37850;53.178;6.376;2022-12-10T10:41:20;-1.20;99.90
51793;DHT22;37850;53.178;6.376;2022-12-10T10:43:46;-1.20;99.90
51793;DHT22;37850;53.178;6.376;2022-12-10T10:46:23;-1.20;99.90
51793;DHT22;37850;53.178;6.376;2022-12-10T10:48:50;-1.00;99.90
51793;DHT22;37850;53.178;6.376;2022-12-10T10:51:22;-1.10;99.90
51793;DHT22;37850;53.178;6.376;2022-12-10T10:53:52;-0.80;99.90
51793;DHT22;37850;53.178;6.376;2022-12-10T10:56:22;-1.20;99.90
51793;DHT22;37850;53.178;6.376;2022-12-10T11:01:18;-1.20;99.90
51793;DHT22;37850;53.178;6.376;2022-12-10T11:03:54;-1.10;99.90
51793;DHT22;37850;53.178;6.376;2022-12-10T11:06:21;-1.10;99.90
51793;DHT22;37850;53.178;6.376;2022-12-10T11:08:47;-1.10;99.90
51793;DHT22;37850;53.178;6.376;2022-12-10T11:11:33;0.00;99.90
51793;DHT22;37850;53.178;6.376;2022-12-10T11:14:27;-1.10;99.90
51793;DHT22;37850;53.178;6.376;2022-12-10T11:17:19;-1.10;99.90
51793;DHT22;37850;53.178;6.376;2022-12-10T11:22:49;-1.00;99.90
51793;DHT22;37850;53.178;6.376;2022-12-10T11:25:15;-1.00;99.90
51793;DHT22;37850;53.178;6.376;2022-12-10T11:30:33;-1.00;99.90
51793;DHT22;37850;53.178;6.376;2022-12-10T11:33:25;-1.00;99.90
51793;DHT22;37850;53.178;6.376;2022-12-10T11:41:25;-0.60;99.90
51793;DHT22;37850;53.178;6.376;2022-12-10T11:47:05;-0.90;99.90
51793;DHT22;37850;53.178;6.376;2022-12-10T12:15:19;-0.70;99.90
51793;DHT22;37850;53.178;6.376;2022-12-10T12:17:53;-0.70;99.90
51793;DHT22;37850;53.178;6.376;2022-12-10T12:20:31;-0.70;99.90
51793;DHT22;37850;53.178;6.376;2022-12-10T12:23:11;-0.70;99.90
51793;DHT22;37850;53.178;6.376;2022-12-10T12:25:58;-0.70;99.90
51793;DHT22;37850;53.178;6.376;2022-12-10T12:28:32;-0.70;99.90
51793;DHT22;37850;53.178;6.376;2022-12-10T12:31:18;-0.60;99.90
51793;DHT22;37850;53.178;6.376;2022-12-10T12:36:24;-0.60;99.90
51793;DHT22;37850;53.178;6.376;2022-12-10T12:39:01;-0.60;99.90
51793;DHT22;37850;53.178;6.376;2022-12-10T12:45:16;-0.60;99.90
51793;DHT22;37850;53.178;6.376;2022-12-10T12:50:46;-0.50;99.90
51793;DHT22;37850;53.178;6.376;2022-12-10T12:53:19;-0.50;99.90
51793;DHT22;37850;53.178;6.376;2022-12-10T13:00:57;0.30;99.90
51793;DHT22;37850;53.178;6.376;2022-12-10T13:03:35;-0.50;99.90
51793;DHT22;37850;53.178;6.376;2022-12-10T13:11:27;-0.50;99.90
51793;DHT22;37850;53.178;6.376;2022-12-10T13:27:18;-0.50;99.90
51793;DHT22;37850;53.178;6.376;2022-12-10T13:30:38;-0.40;99.90
51793;DHT22;37850;53.178;6.376;2022-12-10T13:32:46;-0.40;99.90
51793;DHT22;37850;53.178;6.376;2022-12-10T13:48:56;-0.40;99.90
51793;DHT22;37850;53.178;6.376;2022-12-10T13:51:55;0.90;99.90
51793;DHT22;37850;53.178;6.376;2022-12-10T13:58:04;-0.50;99.90
51793;DHT22;37850;53.178;6.376;2022-12-10T14:10:15;-0.40;99.90
51793;DHT22;37850;53.178;6.376;2022-12-10T14:12:43;0.00;99.90
51793;DHT22;37850;53.178;6.376;2022-12-10T14:15:27;-0.20;99.90
51793;DHT22;37850;53.178;6.376;2022-12-10T14:18:25;-0.40;99.90
51793;DHT22;37850;53.178;6.376;2022-12-10T14:20:58;-0.30;99.90
51793;DHT22;37850;53.178;6.376;2022-12-10T14:23:52;-0.40;99.90
51793;DHT22;37850;53.178;6.376;2022-12-10T14:29:20;-0.30;99.90
51793;DHT22;37850;53.178;6.376;2022-12-10T14:32:19;-0.30;99.90
51793;DHT22;37850;53.178;6.376;2022-12-10T14:35:27;-1.10;99.90
51793;DHT22;37850;53.178;6.376;2022-12-10T14:38:29;-0.60;99.90
51793;DHT22;37850;53.178;6.376;2022-12-10T14:40:56;-0.30;99.90
51793;DHT22;37850;53.178;6.376;2022-12-10T14:43:25;-0.40;99.90
51793;DHT22;37850;53.178;6.376;2022-12-10T14:45:59;-0.30;99.90
51793;DHT22;37850;53.178;6.376;2022-12-10T14:48:26;-0.30;99.90
51793;DHT22;37850;53.178;6.376;2022-12-10T14:50:52;-0.30;99.90
51793;DHT22;37850;53.178;6.376;2022-12-10T14:53:22;-0.30;99.90
51793;DHT22;37850;53.178;6.376;2022-12-10T14:55:53;-0.20;99.90
51793;DHT22;37850;53.178;6.376;2022-12-10T14:58:45;-0.30;99.90
51793;DHT22;37850;53.178;6.376;2022-12-10T15:03:49;-0.30;99.90
51793;DHT22;37850;53.178;6.376;2022-12-10T15:06:17;-0.30;99.90
51793;DHT22;37850;53.178;6.376;2022-12-10T15:08:45;-0.30;99.90
51793;DHT22;37850;53.178;6.376;2022-12-10T15:11:18;-0.30;99.90
51793;DHT22;37850;53.178;6.376;2022-12-10T15:13:49;-0.30;99.90
51793;DHT22;37850;53.178;6.376;2022-12-10T15:16:42;-0.30;99.90
51793;DHT22;37850;53.178;6.376;2022-12-10T15:19:20;-0.30;99.90
51793;DHT22;37850;53.178;6.376;2022-12-10T15:21:47;-0.30;99.90
51793;DHT22;37850;53.178;6.376;2022-12-10T15:24:21;-0.20;99.90
51793;DHT22;37850;53.178;6.376;2022-12-10T15:26:50;-0.30;99.90
51793;DHT22;37850;53.178;6.376;2022-12-10T15:31:50;-0.30;99.90
51793;DHT22;37850;53.178;6.376;2022-12-10T15:34:20;0.00;99.90
51793;DHT22;37850;53.178;6.376;2022-12-10T15:36:55;-0.30;99.90
51793;DHT22;37850;53.178;6.376;2022-12-10T15:39:29;0.40;99.90
51793;DHT22;37850;53.178;6.376;2022-12-10T15:42:05;-0.30;99.90
51793;DHT22;37850;53.178;6.376;2022-12-10T15:47:19;-0.30;99.90
51793;DHT22;37850;53.178;6.376;2022-12-10T15:49:47;-0.20;99.90
51793;DHT22;37850;53.178;6.376;2022-12-10T15:52:18;-0.20;99.90
51793;DHT22;37850;53.178;6.376;2022-12-10T15:54:47;-0.30;99.90
51793;DHT22;37850;53.178;6.376;2022-12-10T15:57:20;-0.30;99.90
51793;DHT22;37850;53.178;6.376;2022-12-10T15:59:49;-0.30;99.90
51793;DHT22;37850;53.178;6.376;2022-12-10T16:02:36;-0.30;99.90
51793;DHT22;37850;53.178;6.376;2022-12-10T16:05:24;0.30;99.90
51793;DHT22;37850;53.178;6.376;2022-12-10T16:07:53;-0.30;99.90
51793;DHT22;37850;53.178;6.376;2022-12-10T16:10:21;-0.30;99.90
51793;DHT22;37850;53.178;6.376;2022-12-10T16:12:59;0.80;99.90
51793;DHT22;37850;53.178;6.376;2022-12-10T16:15:28;-0.30;99.90
51793;DHT22;37850;53.178;6.376;2022-12-10T16:17:55;-0.30;99.90
51793;DHT22;37850;53.178;6.376;2022-12-10T16:20:27;0.50;99.90
51793;DHT22;37850;53.178;6.376;2022-12-10T16:22:55;0.60;99.90
51793;DHT22;37850;53.178;6.376;2022-12-10T16:25:23;-0.30;99.90
51793;DHT22;37850;53.178;6.376;2022-12-10T16:27:50;-0.30;99.90
51793;DHT22;37850;53.178;6.376;2022-12-10T16:30:19;-0.30;99.90
51793;DHT22;37850;53.178;6.376;2022-12-10T16:32:45;-0.30;99.90
51793;DHT22;37850;53.178;6.376;2022-12-10T16:35:11;-0.30;99.90
51793;DHT22;37850;53.178;6.376;2022-12-10T16:37:44;-0.30;99.90
51793;DHT22;37850;53.178;6.376;2022-12-10T16:40:14;-0.30;99.90
51793;DHT22;37850;53.178;6.376;2022-12-10T16:42:41;0.50;99.90
51793;DHT22;37850;53.178;6.376;2022-12-10T16:47:40;-0.30;99.90
51793;DHT22;37850;53.178;6.376;2022-12-10T16:50:06;-0.30;99.90
51793;DHT22;37850;53.178;6.376;2022-12-10T16:52:32;-0.40;99.90
51793;DHT22;37850;53.178;6.376;2022-12-10T16:54:58;-0.40;99.90
51793;DHT22;37850;53.178;6.376;2022-12-10T16:57:24;0.80;99.90
51793;DHT22;37850;53.178;6.376;2022-12-10T16:59:50;-0.20;99.90
51793;DHT22;37850;53.178;6.376;2022-12-10T17:02:17;-0.40;99.90
51793;DHT22;37850;53.178;6.376;2022-12-10T17:04:43;-0.40;99.90
51793;DHT22;37850;53.178;6.376;2022-12-10T17:07:13;-0.40;99.90
51793;DHT22;37850;53.178;6.376;2022-12-10T17:09:40;-0.40;99.90
51793;DHT22;37850;53.178;6.376;2022-12-10T17:12:10;-0.10;99.90
51793;DHT22;37850;53.178;6.376;2022-12-10T17:14:38;-0.40;99.90
51793;DHT22;37850;53.178;6.376;2022-12-10T17:17:11;0.50;99.90
51793;DHT22;37850;53.178;6.376;2022-12-10T17:19:38;-0.40;99.90
51793;DHT22;37850;53.178;6.376;2022-12-10T17:22:09;1.10;99.90
51793;DHT22;37850;53.178;6.376;2022-12-10T17:24:37;-0.50;99.90
51793;DHT22;37850;53.178;6.376;2022-12-10T17:27:10;-1.30;99.90
51793;DHT22;37850;53.178;6.376;2022-12-10T17:29:39;-0.50;99.90
51793;DHT22;37850;53.178;6.376;2022-12-10T17:32:13;-0.50;99.90
51793;DHT22;37850;53.178;6.376;2022-12-10T17:34:39;-0.50;99.90
51793;DHT22;37850;53.178;6.376;2022-12-10T17:37:11;-0.50;99.90
51793;DHT22;37850;53.178;6.376;2022-12-10T17:39:38;-0.50;99.90
51793;DHT22;37850;53.178;6.376;2022-12-10T17:42:04;-0.50;99.90
51793;DHT22;37850;53.178;6.376;2022-12-10T17:44:31;-0.50;99.90
51793;DHT22;37850;53.178;6.376;2022-12-10T17:46:56;-0.60;99.90
51793;DHT22;37850;53.178;6.376;2022-12-10T17:49:24;-0.50;99.90
51793;DHT22;37850;53.178;6.376;2022-12-10T17:51:50;-0.50;99.90
51793;DHT22;37850;53.178;6.376;2022-12-10T17:54:16;-0.50;99.90
51793;DHT22;37850;53.178;6.376;2022-12-10T17:56:43;0.20;99.90
51793;DHT22;37850;53.178;6.376;2022-12-10T17:59:13;-0.50;99.90
51793;DHT22;37850;53.178;6.376;2022-12-10T18:01:39;0.40;99.90
51793;DHT22;37850;53.178;6.376;2022-12-10T18:04:05;-0.20;99.90
51793;DHT22;37850;53.178;6.376;2022-12-10T18:06:31;-0.50;99.90
51793;DHT22;37850;53.178;6.376;2022-12-10T18:09:00;-0.60;99.90
51793;DHT22;37850;53.178;6.376;2022-12-10T18:11:31;0.20;99.90